Tuesday, August 30, 2016
15:00 UTC
  |  Log In   |  Register Free
Airport Search:

Julian Carroll Airport
(KJKL)

Julian Carroll Airport Diagram
No Airport Diagram Available

FAA data valid effective Jul 21 2016 - Sep 15 2016 (unless otherwise noted).

 
 
 
 
 
 
 
 
 
 
 
 
 
 
Current Aviation Weather for KJKL

Weather Summary


The most recent METAR observation for JKL was updated at: 12:53 UTC
METAR for JKL is not available. Closest METAR is for
METAR

METAR KJKL 301453Z 00000KT 10SM CLR 26/22 A3017 RMK AO2 SLP202 T02610217 50000

METAR KJKL 301353Z 00000KT 10SM CLR 24/22 A3017 RMK AO2 SLP203 T02440217

METAR KJKL 301253Z 00000KT 10SM CLR 23/21 A3017 RMK AO2 SLP204 T02280211

METAR KSJS 301435Z 00000KT 10SM BKN007 24/23 A3017 RMK AO2 T02410229

TAF for JKL is not available.
TAF

KJKL - TAF KJKL 301127Z 3012/3112 00000KT P6SM SCT040

KJKL - FM310000 00000KT P6SM SKC =

KSJS - TAF AMD KSJS 301306Z 3013/3112 00000KT 1/4SM FG OVC001

KSJS - FM301330 VRB03KT P6SM SCT040

KSJS - FM310000 00000KT P6SM SKC =

GlobalAir.com is loading additional information.
 Current Weather at JKL
76.0 F° (24.4 C°)

North winds at 0.0 mph
Pressure:
30.17 in
Humidity:
85%
Wind:
North at 0.0 mph
Dew Point:
71.1 F° (21.7 C°)
Visibility:
10.00 mi
JKL NOAA Radar




Find All Airport Services Find A Hotel Find A Rental Car Find A Golf Course Find A Restaurant $100 Hamburger



Airport Weather Forecast for KJKL

Translated METAR for KJKL (1453 UTC)
METAR:
KJKL 301453Z AUTO Julian Carroll, Jackson, KY (KJKL). Aug 30, 1453Z, Automated. Wind is Calm, 10 statute miles visibility, Clear Skies, Temperature 26°C, Dewpoint 22°C, Altimeter is 30.17. Remarks: automated station with precipitation discriminator sea level pressure 1020.2 hectopascals hourly temp 26.1°C dewpoint 21.7°C 3-hour atmospheric pressure increasing, then decreasing (0.0 hectopascal increase)
Conditions at:
KJKL (Julian Carroll, KY) observed 1453 UTC 30 August 2016
Temperature:
76.0 F° (24.4 C°)
Dewpoint:
not reported - refer to area weather report
Pressure:
30.17 Hg
Winds:
not reported
Visibility:
10.00
Ceiling:
at least 12,000 feet AGL
Clouds:
not reported - refer to area weather report
Remarks:
site is un-manned

Translated TAF for TAF for JKL is not available. Refer to local area forecast.
FBO's on the Field
FBO Company Facility Photos Services Transportation Aviation Fuel Prices: Prices include tax
Catering Weather Repair Courtesy Rental Type 100LL JetA JetA+ MOGAS 8087
 
Add another FBO Facility Photos Catering Weather Repair Courtesy Rental Type 100LL JetA JetA+ MOGAS 8087
Services Transportation Aviation Fuel Prices: Prices include tax
There are no FBO's currently reporting fuel at JKL. List your FBO now


model-print
model-print
model-print
model-print